Time;durP1;ratioP1;P1;durP2;ratioP2;P2;SDS_P1;SDS_P2;PMS_P1;PMS_P2;Temp;Humidity;BMP_temperature;BMP_pressure;BME280_temperature;BME280_humidity;BME280_pressure;Samples;Min_cycle;Max_cycle;Signal;HPM_P1;HPM_P2
2022/06/09 00:00:43;;;;;;;3.28;1.48;;;;;;;;;;4982246;28;20019;-50
2022/06/09 00:03:16;;;;;;;3.10;1.50;;;;;;;;;;4980520;28;20935;-50
2022/06/09 00:05:41;;;;;;;2.92;1.73;;;;;;;;;;4983647;28;20035;-52
2022/06/09 00:08:06;;;;;;;3.67;1.73;;;;;;;;;;4979476;28;20045;-51
2022/06/09 00:10:33;;;;;;;2.95;1.40;;;;;;;;;;4983665;28;20278;-50
2022/06/09 00:12:58;;;;;;;2.92;1.83;;;;;;;;;;4987812;28;20023;-52
2022/06/09 00:15:23;;;;;;;2.25;1.52;;;;;;;;;;4987006;28;20683;-50
2022/06/09 00:17:49;;;;;;;2.33;1.50;;;;;;;;;;4985890;28;20489;-51
2022/06/09 00:20:14;;;;;;;5.20;1.58;;;;;;;;;;4986432;28;20064;-50
2022/06/09 00:22:39;;;;;;;3.40;1.53;;;;;;;;;;4986722;28;20189;-52
2022/06/09 00:25:05;;;;;;;11.35;2.95;;;;;;;;;;4985619;28;20288;-52
2022/06/09 00:27:30;;;;;;;4.63;1.92;;;;;;;;;;4987692;28;20027;-52
2022/06/09 00:29:55;;;;;;;2.30;1.55;;;;;;;;;;4986434;28;20408;-49
2022/06/09 00:32:21;;;;;;;4.03;2.20;;;;;;;;;;4995273;28;20060;-50
2022/06/09 00:34:46;;;;;;;2.80;1.70;;;;;;;;;;5001865;28;20280;-49
2022/06/09 00:37:11;;;;;;;2.40;1.65;;;;;;;;;;5004623;28;20293;-51
2022/06/09 00:39:37;;;;;;;3.50;1.90;;;;;;;;;;5001608;28;20018;-51
2022/06/09 00:42:03;;;;;;;3.90;2.10;;;;;;;;;;5004557;28;20048;-50
2022/06/09 00:44:28;;;;;;;2.78;1.95;;;;;;;;;;5004344;28;20269;-51
2022/06/09 00:46:54;;;;;;;5.00;2.00;;;;;;;;;;5002151;28;20780;-50
2022/06/09 00:49:24;;;;;;;4.45;1.90;;;;;;;;;;5006234;28;20018;-51
2022/06/09 00:51:50;;;;;;;3.55;2.35;;;;;;;;;;5006645;28;20026;-51
2022/06/09 00:54:16;;;;;;;3.42;2.10;;;;;;;;;;5001707;28;20016;-51
2022/06/09 00:56:43;;;;;;;2.93;1.90;;;;;;;;;;5004856;28;20408;-51
2022/06/09 00:59:12;;;;;;;3.97;2.30;;;;;;;;;;4997964;28;20600;-51
2022/06/09 01:01:39;;;;;;;3.60;2.03;;;;;;;;;;5004991;28;20022;-49
2022/06/09 01:04:05;;;;;;;3.33;1.88;;;;;;;;;;5000761;28;20273;-51
2022/06/09 01:06:34;;;;;;;3.60;2.10;;;;;;;;;;5002826;28;20485;-51
2022/06/09 01:09:04;;;;;;;4.75;2.13;;;;;;;;;;5000397;28;20452;-50
2022/06/09 01:11:30;;;;;;;4.63;2.50;;;;;;;;;;5003599;28;20045;-51
2022/06/09 01:13:55;;;;;;;6.68;2.88;;;;;;;;;;5005470;28;20034;-50
2022/06/09 01:16:39;;;;;;;4.82;2.55;;;;;;;;;;5005170;28;20044;-49
2022/06/09 01:19:23;;;;;;;4.47;2.22;;;;;;;;;;5001206;28;20112;-51
2022/06/09 01:22:04;;;;;;;4.30;2.58;;;;;;;;;;4994699;28;20535;-51
2022/06/09 01:24:48;;;;;;;3.22;2.55;;;;;;;;;;5005505;28;20378;-51
2022/06/09 01:27:17;;;;;;;5.13;3.08;;;;;;;;;;5004595;28;20030;-51
2022/06/09 01:30:04;;;;;;;4.15;2.88;;;;;;;;;;5004713;28;20024;-51
2022/06/09 01:32:32;;;;;;;3.92;2.85;;;;;;;;;;4998615;28;20512;-50
2022/06/09 01:34:57;;;;;;;4.50;3.22;;;;;;;;;;4994242;28;20026;-52
2022/06/09 01:37:25;;;;;;;3.77;2.67;;;;;;;;;;5004280;28;20088;-51
2022/06/09 01:39:54;;;;;;;5.38;2.80;;;;;;;;;;5006461;28;20469;-51
2022/06/09 01:42:27;;;;;;;5.83;3.47;;;;;;;;;;5001680;28;20032;-52
2022/06/09 01:44:53;;;;;;;5.82;3.40;;;;;;;;;;5001260;28;20448;-50
2022/06/09 01:47:20;;;;;;;5.80;3.40;;;;;;;;;;4997679;28;20034;-51
2022/06/09 01:49:45;;;;;;;5.65;4.00;;;;;;;;;;5006963;28;20021;-51
2022/06/09 01:52:10;;;;;;;7.57;4.33;;;;;;;;;;4994090;28;20594;-51
2022/06/09 01:54:36;;;;;;;6.10;3.50;;;;;;;;;;5000850;28;20295;-50
2022/06/09 01:57:03;;;;;;;7.30;3.85;;;;;;;;;;5003681;28;20296;-52
2022/06/09 01:59:30;;;;;;;5.30;3.28;;;;;;;;;;5004279;28;20049;-51
2022/06/09 02:01:57;;;;;;;4.95;3.63;;;;;;;;;;4988182;28;20114;-51
2022/06/09 02:04:23;;;;;;;6.40;4.10;;;;;;;;;;5002914;28;20045;-50
2022/06/09 02:06:49;;;;;;;5.57;3.70;;;;;;;;;;4997640;28;20021;-51
2022/06/09 02:09:16;;;;;;;7.70;3.88;;;;;;;;;;5004240;28;20029;-50
2022/06/09 02:11:51;;;;;;;6.13;4.00;;;;;;;;;;5002298;28;20120;-50
2022/06/09 02:14:16;;;;;;;6.28;3.78;;;;;;;;;;4998876;28;20019;-50
2022/06/09 02:16:42;;;;;;;7.95;3.63;;;;;;;;;;5000519;28;20284;-50
2022/06/09 02:19:07;;;;;;;7.57;3.78;;;;;;;;;;5001490;28;21699;-51
2022/06/09 02:21:33;;;;;;;4.95;3.47;;;;;;;;;;5003669;28;20024;-51
2022/06/09 02:23:59;;;;;;;8.93;4.18;;;;;;;;;;5000024;28;20022;-49
2022/06/09 02:26:24;;;;;;;5.97;3.97;;;;;;;;;;5000514;28;20022;-51
2022/06/09 02:28:50;;;;;;;6.05;4.13;;;;;;;;;;5004673;28;20261;-51
2022/06/09 02:31:15;;;;;;;5.93;3.67;;;;;;;;;;5001147;28;20030;-51
2022/06/09 02:33:41;;;;;;;5.85;3.92;;;;;;;;;;5000812;28;20030;-50
2022/06/09 02:36:06;;;;;;;6.37;4.33;;;;;;;;;;4996945;28;20120;-51
2022/06/09 02:38:31;;;;;;;8.27;4.07;;;;;;;;;;5003812;28;20277;-52
2022/06/09 02:40:56;;;;;;;8.73;5.10;;;;;;;;;;5011102;28;20084;-52
2022/06/09 02:43:22;;;;;;;8.38;5.38;;;;;;;;;;5002616;28;20260;-52
2022/06/09 02:45:47;;;;;;;8.73;5.30;;;;;;;;;;5000034;28;20576;-51
2022/06/09 02:48:13;;;;;;;7.55;4.95;;;;;;;;;;5001099;28;20018;-51
2022/06/09 02:50:38;;;;;;;7.47;4.70;;;;;;;;;;5003815;28;20527;-51
2022/06/09 02:53:03;;;;;;;7.60;4.55;;;;;;;;;;4995954;28;20116;-50
2022/06/09 02:55:29;;;;;;;6.43;4.22;;;;;;;;;;4998160;28;20041;-52
2022/06/09 02:57:54;;;;;;;8.88;4.18;;;;;;;;;;4997165;28;20034;-49
2022/06/09 03:00:20;;;;;;;7.22;4.20;;;;;;;;;;4984177;28;20030;-52
2022/06/09 03:03:04;;;;;;;6.35;3.95;;;;;;;;;;4999650;28;20113;-52
2022/06/09 03:05:30;;;;;;;6.68;3.95;;;;;;;;;;4994520;28;20013;-51
2022/06/09 03:07:55;;;;;;;5.65;4.00;;;;;;;;;;5000647;28;20022;-52
2022/06/09 03:10:20;;;;;;;9.02;5.00;;;;;;;;;;4998037;28;20022;-51
2022/06/09 03:12:46;;;;;;;5.03;4.00;;;;;;;;;;4980975;28;20018;-51
2022/06/09 03:15:11;;;;;;;8.57;4.77;;;;;;;;;;5004016;28;20028;-51
2022/06/09 03:17:37;;;;;;;7.60;4.22;;;;;;;;;;5000781;28;21000;-51
2022/06/09 03:20:06;;;;;;;8.70;4.70;;;;;;;;;;5001124;28;20028;-51
2022/06/09 03:22:32;;;;;;;7.00;4.30;;;;;;;;;;4986961;28;20695;-51
2022/06/09 03:24:58;;;;;;;8.70;4.85;;;;;;;;;;4985709;28;20487;-52
2022/06/09 03:27:23;;;;;;;7.70;5.00;;;;;;;;;;4997394;28;20026;-50
2022/06/09 03:29:48;;;;;;;8.30;5.20;;;;;;;;;;4998012;28;21266;-51
2022/06/09 03:32:13;;;;;;;12.53;7.07;;;;;;;;;;4991285;28;20316;-52
2022/06/09 03:34:39;;;;;;;9.00;5.43;;;;;;;;;;4981046;28;20279;-51
2022/06/09 03:37:04;;;;;;;11.02;5.10;;;;;;;;;;4979277;28;20368;-52
2022/06/09 03:39:29;;;;;;;10.77;5.30;;;;;;;;;;4982372;28;20022;-50
2022/06/09 03:41:54;;;;;;;9.03;5.73;;;;;;;;;;4980252;28;20281;-51
2022/06/09 03:44:20;;;;;;;9.70;5.20;;;;;;;;;;4979963;28;20347;-53
2022/06/09 03:46:45;;;;;;;8.90;5.90;;;;;;;;;;4981494;28;20772;-51
2022/06/09 03:49:10;;;;;;;7.72;4.95;;;;;;;;;;4970265;28;20018;-52
2022/06/09 03:51:36;;;;;;;10.63;6.27;;;;;;;;;;4988325;28;20508;-53
2022/06/09 03:54:01;;;;;;;10.83;6.50;;;;;;;;;;4985748;28;20349;-51
2022/06/09 03:56:26;;;;;;;11.23;6.03;;;;;;;;;;4984199;28;20305;-53
2022/06/09 03:58:51;;;;;;;9.67;5.67;;;;;;;;;;4986735;28;21095;-50
2022/06/09 04:01:20;;;;;;;11.07;6.20;;;;;;;;;;4985599;28;20396;-51
2022/06/09 04:03:45;;;;;;;11.15;5.95;;;;;;;;;;4985250;28;20357;-53
2022/06/09 04:06:14;;;;;;;9.50;5.97;;;;;;;;;;4981730;28;20670;-52
2022/06/09 04:08:39;;;;;;;11.15;6.55;;;;;;;;;;4981673;28;20032;-51
2022/06/09 04:11:05;;;;;;;8.88;5.65;;;;;;;;;;4984367;28;20109;-50
2022/06/09 04:13:30;;;;;;;11.97;6.07;;;;;;;;;;4983529;28;20026;-51
2022/06/09 04:15:55;;;;;;;10.93;6.10;;;;;;;;;;4985786;28;20754;-52
2022/06/09 04:18:21;;;;;;;10.45;5.55;;;;;;;;;;4983510;28;20266;-53
2022/06/09 04:20:46;;;;;;;11.00;6.70;;;;;;;;;;4985631;28;20030;-53
2022/06/09 04:23:11;;;;;;;12.77;7.07;;;;;;;;;;4981124;28;20030;-52
2022/06/09 04:25:38;;;;;;;13.27;6.90;;;;;;;;;;4985909;28;20818;-53
2022/06/09 04:28:03;;;;;;;11.25;7.43;;;;;;;;;;4981538;28;20285;-51
2022/06/09 04:30:28;;;;;;;11.02;7.18;;;;;;;;;;4985145;28;20064;-50
2022/06/09 04:32:54;;;;;;;10.68;7.00;;;;;;;;;;4982142;28;20133;-51
2022/06/09 04:35:19;;;;;;;12.77;8.15;;;;;;;;;;4980714;28;20038;-52
2022/06/09 04:37:59;;;;;;;12.00;7.38;;;;;;;;;;4981211;28;20811;-53
2022/06/09 04:40:25;;;;;;;13.73;8.13;;;;;;;;;;4978026;28;20023;-54
2022/06/09 04:42:50;;;;;;;14.45;8.40;;;;;;;;;;4976242;28;20022;-51
2022/06/09 04:45:16;;;;;;;15.00;8.52;;;;;;;;;;4982942;28;20162;-52
2022/06/09 04:47:41;;;;;;;11.18;7.50;;;;;;;;;;4980257;28;20025;-50
2022/06/09 04:50:07;;;;;;;14.10;8.40;;;;;;;;;;4981858;28;20121;-51
2022/06/09 04:52:33;;;;;;;11.93;7.63;;;;;;;;;;4978030;28;20417;-52
2022/06/09 04:54:58;;;;;;;13.10;8.55;;;;;;;;;;4984712;28;20476;-50
2022/06/09 04:57:24;;;;;;;14.00;8.20;;;;;;;;;;4970354;28;20029;-51
2022/06/09 04:59:49;;;;;;;13.32;8.73;;;;;;;;;;4952017;28;20871;-52
2022/06/09 05:02:15;;;;;;;12.15;8.18;;;;;;;;;;4979566;28;20109;-53
2022/06/09 05:04:40;;;;;;;14.25;8.52;;;;;;;;;;4979485;28;20066;-51
2022/06/09 05:07:05;;;;;;;12.68;8.32;;;;;;;;;;4968865;28;20022;-50
2022/06/09 05:09:30;;;;;;;11.07;7.73;;;;;;;;;;4986683;28;20165;-51
2022/06/09 05:11:56;;;;;;;12.87;7.73;;;;;;;;;;4980587;28;20824;-50
2022/06/09 05:14:21;;;;;;;13.80;8.87;;;;;;;;;;4976076;28;22290;-51
2022/06/09 05:16:46;;;;;;;11.77;7.87;;;;;;;;;;4974748;28;20069;-52
2022/06/09 05:19:11;;;;;;;12.13;7.23;;;;;;;;;;4977200;28;20376;-50
2022/06/09 05:21:36;;;;;;;11.23;8.13;;;;;;;;;;4977334;28;20277;-51
2022/06/09 05:24:02;;;;;;;12.17;7.83;;;;;;;;;;4972544;28;20387;-51
2022/06/09 05:26:27;;;;;;;12.63;8.13;;;;;;;;;;4975887;28;20277;-52
2022/06/09 05:28:52;;;;;;;10.37;7.23;;;;;;;;;;4978184;28;20434;-51
2022/06/09 05:31:18;;;;;;;10.63;7.57;;;;;;;;;;4978004;28;20416;-51
2022/06/09 05:33:43;;;;;;;12.80;7.40;;;;;;;;;;5002420;28;20018;-52
2022/06/09 05:36:08;;;;;;;11.70;7.63;;;;;;;;;;5000850;28;20311;-52
2022/06/09 05:46:45;;;;;;;13.77;7.97;;;;;;;;;;4999617;28;20048;-51
2022/06/09 05:49:11;;;;;;;12.75;8.52;;;;;;;;;;5004130;28;20022;-51
2022/06/09 05:51:36;;;;;;;13.65;7.68;;;;;;;;;;5001243;28;20057;-52
2022/06/09 05:54:02;;;;;;;10.07;7.18;;;;;;;;;;5004833;28;20493;-52
2022/06/09 05:56:27;;;;;;;12.25;8.00;;;;;;;;;;4999210;28;20351;-53
2022/06/09 05:58:53;;;;;;;11.67;7.73;;;;;;;;;;4999300;28;21013;-52
2022/06/09 06:01:18;;;;;;;13.00;7.90;;;;;;;;;;4996526;28;20092;-51
2022/06/09 06:03:43;;;;;;;12.30;7.83;;;;;;;;;;4999529;28;20257;-52
2022/06/09 06:06:54;;;;;;;10.13;7.10;;;;;;;;;;4997517;28;20032;-51
2022/06/09 06:08:54;;;;;;;14.07;7.90;;;;;;;;;;4992813;28;20041;-52
2022/06/09 06:11:19;;;;;;;11.30;7.70;;;;;;;;;;4983847;28;20034;-52
2022/06/09 06:13:45;;;;;;;10.03;7.50;;;;;;;;;;5001131;28;20025;-51
2022/06/09 06:16:10;;;;;;;12.90;8.30;;;;;;;;;;5001718;28;20399;-52
2022/06/09 06:18:35;;;;;;;11.23;8.00;;;;;;;;;;5002915;28;20463;-51
2022/06/09 06:21:01;;;;;;;13.60;7.93;;;;;;;;;;4999140;28;20269;-52
2022/06/09 06:23:26;;;;;;;16.03;8.13;;;;;;;;;;5000832;28;20351;-51
2022/06/09 06:25:52;;;;;;;10.85;7.63;;;;;;;;;;5000403;28;20513;-53
2022/06/09 06:28:17;;;;;;;13.05;8.15;;;;;;;;;;5000753;28;20871;-52
2022/06/09 06:30:51;;;;;;;12.00;7.25;;;;;;;;;;5097005;27;20414;-52
2022/06/09 06:33:17;;;;;;;11.82;6.63;;;;;;;;;;5097199;28;20703;-51
2022/06/09 06:35:42;;;;;;;8.57;6.38;;;;;;;;;;5091563;28;20016;-51
2022/06/09 06:38:08;;;;;;;9.75;7.28;;;;;;;;;;5084587;28;20039;-51
2022/06/09 06:40:33;;;;;;;10.98;6.90;;;;;;;;;;5090351;28;20768;-51
2022/06/09 06:42:58;;;;;;;10.88;7.22;;;;;;;;;;5093280;28;20564;-51
2022/06/09 06:45:25;;;;;;;12.50;7.65;;;;;;;;;;5092212;28;20024;-52
2022/06/09 06:47:50;;;;;;;11.32;6.97;;;;;;;;;;5090048;28;20169;-51
2022/06/09 06:50:16;;;;;;;9.52;7.15;;;;;;;;;;5086748;28;20118;-51
2022/06/09 06:52:41;;;;;;;12.13;6.80;;;;;;;;;;5086260;28;20024;-52
2022/06/09 06:55:07;;;;;;;9.52;7.05;;;;;;;;;;5085695;28;20069;-50
2022/06/09 06:57:33;;;;;;;8.27;6.63;;;;;;;;;;5085787;28;20012;-52
2022/06/09 06:59:58;;;;;;;10.00;7.00;;;;;;;;;;5088371;28;20023;-52
2022/06/09 07:02:23;;;;;;;7.85;6.75;;;;;;;;;;5086488;27;20016;-51
2022/06/09 07:04:49;;;;;;;10.40;6.70;;;;;;;;;;5088284;28;20436;-51
2022/06/09 07:07:14;;;;;;;7.83;6.53;;;;;;;;;;5085659;28;20020;-52
2022/06/09 07:09:39;;;;;;;10.23;6.50;;;;;;;;;;5085907;28;20369;-50
2022/06/09 07:12:05;;;;;;;9.37;6.07;;;;;;;;;;5082995;28;20274;-51
2022/06/09 07:14:30;;;;;;;9.68;6.75;;;;;;;;;;5087081;28;20826;-52
2022/06/09 07:16:55;;;;;;;10.60;7.03;;;;;;;;;;5084347;28;20123;-52
2022/06/09 07:19:21;;;;;;;11.18;7.88;;;;;;;;;;5084182;28;20487;-52
2022/06/09 07:21:46;;;;;;;10.93;7.77;;;;;;;;;;5082640;28;20170;-51
2022/06/09 07:24:11;;;;;;;10.33;7.27;;;;;;;;;;5082970;28;20278;-52
2022/06/09 07:26:37;;;;;;;11.82;7.50;;;;;;;;;;5086190;28;20802;-52
2022/06/09 07:29:02;;;;;;;13.85;8.30;;;;;;;;;;5085756;28;20541;-50
2022/06/09 07:31:28;;;;;;;12.40;7.70;;;;;;;;;;5083010;28;20525;-51
2022/06/09 07:33:53;;;;;;;11.73;7.97;;;;;;;;;;5087143;28;20458;-51
2022/06/09 07:36:19;;;;;;;11.00;7.67;;;;;;;;;;5085503;28;20486;-50
2022/06/09 07:38:44;;;;;;;13.13;8.38;;;;;;;;;;5085281;28;20278;-51
2022/06/09 07:41:10;;;;;;;13.23;9.10;;;;;;;;;;5082400;28;20069;-50
2022/06/09 07:43:35;;;;;;;15.82;8.43;;;;;;;;;;5079398;28;20108;-51
2022/06/09 07:46:01;;;;;;;14.38;8.13;;;;;;;;;;5072325;28;20032;-52
2022/06/09 07:48:26;;;;;;;12.73;8.65;;;;;;;;;;5077104;28;20576;-51
2022/06/09 07:50:52;;;;;;;15.63;8.73;;;;;;;;;;5076856;28;20075;-50
2022/06/09 07:53:18;;;;;;;11.68;8.38;;;;;;;;;;5079422;28;20322;-51
2022/06/09 07:55:43;;;;;;;14.15;8.98;;;;;;;;;;5077728;28;20505;-50
2022/06/09 07:58:08;;;;;;;12.10;8.15;;;;;;;;;;5079655;28;20454;-50
2022/06/09 08:00:34;;;;;;;11.07;7.27;;;;;;;;;;5079070;28;20937;-52
2022/06/09 08:03:01;;;;;;;11.93;8.43;;;;;;;;;;5078695;28;20374;-50
2022/06/09 08:05:26;;;;;;;11.43;8.30;;;;;;;;;;5076218;28;20266;-52
2022/06/09 08:07:52;;;;;;;13.95;8.75;;;;;;;;;;5075926;28;20027;-50
2022/06/09 08:10:18;;;;;;;14.05;8.65;;;;;;;;;;5075685;28;20031;-52
2022/06/09 08:12:44;;;;;;;12.48;8.00;;;;;;;;;;5073403;28;20482;-52
2022/06/09 08:15:10;;;;;;;11.60;7.78;;;;;;;;;;5070721;28;20035;-51
2022/06/09 08:17:35;;;;;;;12.83;8.40;;;;;;;;;;5074751;28;20403;-51
2022/06/09 08:20:00;;;;;;;15.50;7.73;;;;;;;;;;5079561;28;20278;-50
2022/06/09 08:22:25;;;;;;;10.90;7.85;;;;;;;;;;5076338;28;20020;-50
2022/06/09 08:24:51;;;;;;;10.90;7.72;;;;;;;;;;5080630;28;20069;-51
2022/06/09 08:27:16;;;;;;;10.80;7.00;;;;;;;;;;5073624;28;20579;-53
2022/06/09 08:29:41;;;;;;;11.30;7.23;;;;;;;;;;5077478;28;20587;-51
2022/06/09 08:32:07;;;;;;;12.30;8.00;;;;;;;;;;5077581;28;20399;-51
2022/06/09 08:34:32;;;;;;;11.25;7.68;;;;;;;;;;5077755;28;20028;-51
2022/06/09 08:36:57;;;;;;;11.45;7.70;;;;;;;;;;5077760;28;20010;-52
2022/06/09 08:39:22;;;;;;;11.33;7.30;;;;;;;;;;5078049;28;20466;-51
2022/06/09 08:42:06;;;;;;;11.77;7.20;;;;;;;;;;5080468;28;20254;-51
2022/06/09 08:44:36;;;;;;;12.13;7.90;;;;;;;;;;5074564;28;20278;-52
2022/06/09 08:47:01;;;;;;;11.40;7.68;;;;;;;;;;5072645;28;20169;-52
2022/06/09 08:49:39;;;;;;;11.43;7.43;;;;;;;;;;5072118;28;20126;-51
2022/06/09 08:52:07;;;;;;;12.90;7.30;;;;;;;;;;5077634;28;20266;-51
2022/06/09 08:54:33;;;;;;;10.05;6.47;;;;;;;;;;5080211;28;20024;-53
2022/06/09 08:57:01;;;;;;;11.88;6.88;;;;;;;;;;5080628;28;20494;-52
2022/06/09 08:59:28;;;;;;;14.15;7.55;;;;;;;;;;5077933;28;20028;-51
2022/06/09 09:01:58;;;;;;;13.30;7.18;;;;;;;;;;5083076;28;20106;-51
2022/06/09 09:04:24;;;;;;;11.38;7.25;;;;;;;;;;5074212;28;20018;-50
2022/06/09 09:07:16;;;;;;;13.18;7.20;;;;;;;;;;5076234;28;20028;-52
2022/06/09 09:09:41;;;;;;;9.63;6.55;;;;;;;;;;5058407;28;20047;-51
2022/06/09 09:12:16;;;;;;;9.37;6.50;;;;;;;;;;5081868;28;20012;-50
2022/06/09 09:14:41;;;;;;;10.32;6.20;;;;;;;;;;5081672;28;20285;-51
2022/06/09 09:17:18;;;;;;;20.80;6.90;;;;;;;;;;5080189;28;20020;-51
2022/06/09 09:19:53;;;;;;;11.10;6.63;;;;;;;;;;5076469;28;20872;-51
2022/06/09 09:22:54;;;;;;;9.43;6.63;;;;;;;;;;5070927;28;20479;-49
2022/06/09 09:25:48;;;;;;;11.27;5.93;;;;;;;;;;5020740;28;20456;-51
2022/06/09 09:28:21;;;;;;;9.95;6.30;;;;;;;;;;5065592;28;20173;-51
2022/06/09 09:30:55;;;;;;;9.68;5.60;;;;;;;;;;5079179;28;20047;-49
2022/06/09 09:33:20;;;;;;;7.65;5.45;;;;;;;;;;5078538;28;20016;-51
2022/06/09 09:35:47;;;;;;;9.57;5.53;;;;;;;;;;5080461;28;20035;-50
2022/06/09 09:38:14;;;;;;;7.82;5.35;;;;;;;;;;5077075;28;20040;-49
2022/06/09 09:40:42;;;;;;;10.23;5.63;;;;;;;;;;5070378;28;20520;-51
2022/06/09 09:43:20;;;;;;;9.85;5.32;;;;;;;;;;5078862;28;20031;-51
2022/06/09 09:45:46;;;;;;;9.60;5.32;;;;;;;;;;5082842;28;20056;-51
2022/06/09 09:48:18;;;;;;;9.52;5.20;;;;;;;;;;5077800;28;20040;-53
2022/06/09 09:50:53;;;;;;;8.77;5.03;;;;;;;;;;5080828;28;20063;-52
2022/06/09 09:53:18;;;;;;;9.02;5.38;;;;;;;;;;5078144;28;20028;-50
2022/06/09 09:55:52;;;;;;;7.70;5.50;;;;;;;;;;5075915;28;20485;-51
2022/06/09 09:58:28;;;;;;;7.90;5.15;;;;;;;;;;5079234;28;20265;-51
2022/06/09 10:00:59;;;;;;;7.70;5.15;;;;;;;;;;5079511;28;20044;-51
2022/06/09 10:09:05;;;;;;;8.82;5.25;;;;;;;;;;5076026;28;20088;-49
2022/06/09 10:14:29;;;;;;;8.57;5.05;;;;;;;;;;5080086;28;20043;-51
2022/06/09 10:16:55;;;;;;;7.88;5.22;;;;;;;;;;5079348;28;20024;-52
2022/06/09 10:19:21;;;;;;;7.10;4.88;;;;;;;;;;5083452;28;20031;-52
2022/06/09 10:21:57;;;;;;;8.57;4.53;;;;;;;;;;5067970;28;20047;-52
2022/06/09 10:24:24;;;;;;;9.18;5.20;;;;;;;;;;5079272;28;20020;-52
2022/06/09 10:26:54;;;;;;;8.85;5.03;;;;;;;;;;5078308;28;20882;-52
2022/06/09 10:29:26;;;;;;;10.82;5.40;;;;;;;;;;5074509;28;20048;-52
2022/06/09 10:31:52;;;;;;;7.82;5.07;;;;;;;;;;5075867;28;20037;-52
2022/06/09 10:34:36;;;;;;;8.50;4.60;;;;;;;;;;5075807;28;20023;-52
2022/06/09 10:37:03;;;;;;;7.28;5.30;;;;;;;;;;5079529;28;20032;-52
2022/06/09 10:39:31;;;;;;;7.05;4.50;;;;;;;;;;5074454;28;20012;-51
2022/06/09 10:41:58;;;;;;;7.40;4.70;;;;;;;;;;5070200;28;20029;-52
2022/06/09 10:44:26;;;;;;;7.82;4.47;;;;;;;;;;5070798;28;20019;-51
2022/06/09 10:55:28;;;;;;;9.02;4.60;;;;;;;;;;5074652;28;20048;-50
2022/06/09 10:58:03;;;;;;;6.25;4.03;;;;;;;;;;5073388;28;20652;-51
2022/06/09 11:00:29;;;;;;;7.97;4.25;;;;;;;;;;5073055;28;20016;-51
2022/06/09 11:02:56;;;;;;;5.65;4.57;;;;;;;;;;5076923;28;20016;-52
2022/06/09 11:05:33;;;;;;;5.45;3.95;;;;;;;;;;5080554;28;20128;-51
2022/06/09 11:08:05;;;;;;;7.15;4.30;;;;;;;;;;5075695;28;20020;-52
2022/06/09 11:10:48;;;;;;;8.35;4.03;;;;;;;;;;5079673;28;20741;-51
2022/06/09 11:13:32;;;;;;;7.35;4.70;;;;;;;;;;5065562;28;20021;-51
2022/06/09 11:16:10;;;;;;;8.15;4.43;;;;;;;;;;5066679;28;20407;-51
2022/06/09 11:18:54;;;;;;;6.15;4.40;;;;;;;;;;5075407;28;20131;-52
2022/06/09 11:21:21;;;;;;;5.93;4.28;;;;;;;;;;5074150;28;20028;-51
2022/06/09 11:24:01;;;;;;;7.68;4.07;;;;;;;;;;5077100;28;20020;-52
2022/06/09 11:26:48;;;;;;;5.65;4.18;;;;;;;;;;5072379;28;20023;-51
2022/06/09 11:29:32;;;;;;;6.30;3.88;;;;;;;;;;5069111;28;20061;-53
2022/06/09 11:32:15;;;;;;;7.47;4.15;;;;;;;;;;5078012;28;20506;-51
2022/06/09 11:34:47;;;;;;;6.15;4.10;;;;;;;;;;5078917;28;20025;-51
2022/06/09 11:37:35;;;;;;;6.65;4.20;;;;;;;;;;5074697;28;20035;-50
2022/06/09 11:40:03;;;;;;;7.35;4.20;;;;;;;;;;5066670;28;20117;-51
2022/06/09 11:42:33;;;;;;;7.40;3.78;;;;;;;;;;5075558;28;20494;-50
2022/06/09 11:44:59;;;;;;;5.18;3.63;;;;;;;;;;5079132;28;20020;-50
2022/06/09 11:47:26;;;;;;;6.00;3.88;;;;;;;;;;5074398;28;20063;-50
2022/06/09 11:49:55;;;;;;;5.78;3.95;;;;;;;;;;5078400;28;20486;-51
2022/06/09 11:52:21;;;;;;;5.10;4.07;;;;;;;;;;5076068;28;20020;-51
2022/06/09 11:54:50;;;;;;;6.57;3.70;;;;;;;;;;5075195;28;20490;-51
2022/06/09 11:57:16;;;;;;;4.80;3.42;;;;;;;;;;5081809;28;20130;-52
2022/06/09 11:59:50;;;;;;;5.53;3.90;;;;;;;;;;5079406;28;20028;-52
2022/06/09 12:02:19;;;;;;;9.07;3.72;;;;;;;;;;5082522;28;20487;-52
2022/06/09 12:05:03;;;;;;;7.95;4.00;;;;;;;;;;5079082;28;20028;-50
2022/06/09 12:07:37;;;;;;;7.07;3.72;;;;;;;;;;5080724;28;20137;-52
2022/06/09 12:10:02;;;;;;;4.90;3.47;;;;;;;;;;5076632;28;20048;-53
2022/06/09 12:12:35;;;;;;;6.50;3.58;;;;;;;;;;5072253;28;20475;-52
2022/06/09 12:15:16;;;;;;;5.85;3.88;;;;;;;;;;5077344;28;20035;-50
2022/06/09 12:17:55;;;;;;;5.43;3.53;;;;;;;;;;5068251;28;20035;-51
2022/06/09 12:20:40;;;;;;;7.90;3.63;;;;;;;;;;5075680;28;20556;-52
2022/06/09 12:23:26;;;;;;;5.18;2.95;;;;;;;;;;5079565;28;20024;-52
2022/06/09 12:26:09;;;;;;;5.50;3.72;;;;;;;;;;5074549;28;20090;-52
2022/06/09 12:28:50;;;;;;;6.90;3.42;;;;;;;;;;5083148;28;20032;-52
2022/06/09 12:31:16;;;;;;;6.72;3.88;;;;;;;;;;5078719;28;20143;-51
2022/06/09 12:33:55;;;;;;;4.82;3.28;;;;;;;;;;5082005;28;20024;-53
2022/06/09 12:36:29;;;;;;;4.35;3.42;;;;;;;;;;5080607;28;20392;-51
2022/06/09 12:38:55;;;;;;;12.77;4.82;;;;;;;;;;5072636;28;20033;-53
2022/06/09 12:41:27;;;;;;;6.10;3.78;;;;;;;;;;5075720;28;20020;-53
2022/06/09 12:43:57;;;;;;;5.22;3.00;;;;;;;;;;5078477;28;20024;-51
2022/06/09 12:46:22;;;;;;;;;;;;;;;;;;5080343;28;20020;-52
2022/06/09 12:48:48;;;;;;;9.18;4.07;;;;;;;;;;5072971;28;19908;-51
2022/06/09 12:51:15;;;;;;;7.00;3.67;;;;;;;;;;5081932;28;20069;-52
2022/06/09 12:53:40;;;;;;;8.75;3.65;;;;;;;;;;5071690;28;20107;-53
2022/06/09 12:56:23;;;;;;;11.18;4.93;;;;;;;;;;5073306;28;20120;-52
2022/06/09 12:58:48;;;;;;;6.75;3.60;;;;;;;;;;5081722;28;20050;-53
2022/06/09 13:01:16;;;;;;;8.25;3.42;;;;;;;;;;5075041;28;20483;-56
2022/06/09 13:04:01;;;;;;;8.18;3.85;;;;;;;;;;5080166;28;20028;-52
2022/06/09 13:06:29;;;;;;;9.15;4.60;;;;;;;;;;5077987;28;20024;-53
2022/06/09 13:09:15;;;;;;;8.00;3.35;;;;;;;;;;5080374;28;20039;-52
2022/06/09 13:14:24;;;;;;;8.63;3.30;;;;;;;;;;5078199;28;20021;-51
2022/06/09 13:16:51;;;;;;;6.07;3.33;;;;;;;;;;5077783;28;20028;-50
2022/06/09 13:19:18;;;;;;;6.13;3.25;;;;;;;;;;5082098;28;20643;-52
2022/06/09 13:21:44;;;;;;;6.15;3.45;;;;;;;;;;5082063;28;20016;-51
2022/06/09 13:24:13;;;;;;;5.05;2.65;;;;;;;;;;5080192;28;20410;-50
2022/06/09 13:26:39;;;;;;;4.82;3.33;;;;;;;;;;5071741;28;20023;-52
2022/06/09 13:29:09;;;;;;;5.13;3.17;;;;;;;;;;5079314;28;20135;-51
2022/06/09 13:31:34;;;;;;;;;;;;;;;;;;5075772;28;20024;-50
2022/06/09 13:34:02;;;;;;;7.03;3.40;;;;;;;;;;5075596;28;19908;-50
2022/06/09 13:36:32;;;;;;;5.53;3.50;;;;;;;;;;5078491;28;20146;-51
2022/06/09 13:38:58;;;;;;;4.82;3.30;;;;;;;;;;5075796;28;20017;-52
2022/06/09 13:41:23;;;;;;;6.50;3.53;;;;;;;;;;5068986;28;20027;-51
2022/06/09 13:43:50;;;;;;;4.73;3.30;;;;;;;;;;5071757;28;20017;-51
2022/06/09 13:46:18;;;;;;;6.15;3.53;;;;;;;;;;5066908;28;20305;-51
2022/06/09 13:49:19;;;;;;;5.53;3.00;;;;;;;;;;5075967;28;20023;-51
2022/06/09 13:52:01;;;;;;;5.07;2.97;;;;;;;;;;5015767;28;20041;-51
2022/06/09 13:54:40;;;;;;;4.35;2.83;;;;;;;;;;5050778;28;20085;-50
2022/06/09 13:57:11;;;;;;;4.55;3.30;;;;;;;;;;5077187;28;20058;-53
2022/06/09 13:59:37;;;;;;;3.88;2.97;;;;;;;;;;5066524;28;20348;-51
2022/06/09 14:02:02;;;;;;;7.20;3.13;;;;;;;;;;5068981;28;20095;-51
2022/06/09 14:04:34;;;;;;;7.22;3.50;;;;;;;;;;5072568;28;20032;-50
2022/06/09 14:06:59;;;;;;;4.72;2.85;;;;;;;;;;5107081;27;20016;-51
2022/06/09 14:09:25;;;;;;;5.68;3.55;;;;;;;;;;5065479;28;20036;-49
2022/06/09 14:11:50;;;;;;;3.65;2.75;;;;;;;;;;5072320;28;20024;-52
2022/06/09 14:14:15;;;;;;;4.53;3.00;;;;;;;;;;5064221;28;20060;-51
2022/06/09 14:16:43;;;;;;;4.80;3.03;;;;;;;;;;5066321;28;20027;-50
2022/06/09 14:19:10;;;;;;;6.90;3.30;;;;;;;;;;5101042;27;20499;-51
2022/06/09 14:21:36;;;;;;;7.28;3.10;;;;;;;;;;5071448;28;20055;-52
2022/06/09 14:24:03;;;;;;;5.68;3.42;;;;;;;;;;5066420;28;20447;-50
2022/06/09 14:26:47;;;;;;;6.38;3.03;;;;;;;;;;5066182;28;20024;-51
2022/06/09 14:29:33;;;;;;;6.22;3.38;;;;;;;;;;5074078;28;20048;-50
2022/06/09 14:31:58;;;;;;;5.30;3.30;;;;;;;;;;5072020;28;20012;-50
2022/06/09 14:37:10;;;;;;;3.83;2.85;;;;;;;;;;5067108;28;20023;-50
2022/06/09 14:39:35;;;;;;;7.05;3.20;;;;;;;;;;5069575;28;20024;-51
2022/06/09 14:47:47;;;;;;;6.32;2.67;;;;;;;;;;5072865;28;20414;-51
2022/06/09 14:53:00;;;;;;;7.63;3.65;;;;;;;;;;5080945;28;20084;-48
2022/06/09 14:55:25;;;;;;;5.53;2.95;;;;;;;;;;5081993;28;20049;-49
2022/06/09 15:00:54;;;;;;;4.55;2.65;;;;;;;;;;5083092;28;20285;-51
2022/06/09 15:06:05;;;;;;;5.63;3.03;;;;;;;;;;5081691;28;20047;-51
2022/06/09 15:11:16;;;;;;;4.82;2.97;;;;;;;;;;5077781;28;20125;-48
2022/06/09 15:13:41;;;;;;;5.28;3.13;;;;;;;;;;5083002;28;20111;-52
2022/06/09 15:16:07;;;;;;;5.25;3.00;;;;;;;;;;5084186;28;20119;-51
2022/06/09 15:18:51;;;;;;;4.78;2.50;;;;;;;;;;5078254;28;20633;-51
2022/06/09 15:21:17;;;;;;;5.25;2.80;;;;;;;;;;5084849;28;20228;-51
2022/06/09 15:24:01;;;;;;;5.25;2.90;;;;;;;;;;5077766;28;20035;-51
2022/06/09 15:26:26;;;;;;;5.35;2.53;;;;;;;;;;5082794;28;20063;-51
2022/06/09 15:28:52;;;;;;;4.90;2.50;;;;;;;;;;5074786;28;20067;-51
2022/06/09 15:31:25;;;;;;;4.93;2.70;;;;;;;;;;5082135;28;20294;-52
2022/06/09 15:37:11;;;;;;;3.55;2.30;;;;;;;;;;5076383;28;20093;-52